sensor_id;sensor_type;location;lat;lon;timestamp;P1;durP1;ratioP1;P2;durP2;ratioP2
2602;SDS011;1311;47.966;7.958;2023-04-25T00:00:12;6.57;;;3.30;;
2602;SDS011;1311;47.966;7.958;2023-04-25T00:02:39;7.43;;;2.70;;
2602;SDS011;1311;47.966;7.958;2023-04-25T00:05:06;3.67;;;2.53;;
2602;SDS011;1311;47.966;7.958;2023-04-25T00:07:35;2.33;;;2.13;;
2602;SDS011;1311;47.966;7.958;2023-04-25T00:10:02;3.80;;;2.57;;
2602;SDS011;1311;47.966;7.958;2023-04-25T00:12:29;2.80;;;2.00;;
2602;SDS011;1311;47.966;7.958;2023-04-25T00:14:58;5.03;;;2.20;;
2602;SDS011;1311;47.966;7.958;2023-04-25T00:17:25;5.60;;;2.00;;
2602;SDS011;1311;47.966;7.958;2023-04-25T00:19:51;5.90;;;2.37;;
2602;SDS011;1311;47.966;7.958;2023-04-25T00:22:18;3.60;;;2.20;;
2602;SDS011;1311;47.966;7.958;2023-04-25T00:24:46;2.60;;;2.20;;
2602;SDS011;1311;47.966;7.958;2023-04-25T00:27:13;3.03;;;2.10;;
2602;SDS011;1311;47.966;7.958;2023-04-25T00:29:40;2.20;;;1.80;;
2602;SDS011;1311;47.966;7.958;2023-04-25T00:32:07;4.13;;;2.00;;
2602;SDS011;1311;47.966;7.958;2023-04-25T00:34:34;2.27;;;1.77;;
2602;SDS011;1311;47.966;7.958;2023-04-25T00:37:01;2.40;;;1.90;;
2602;SDS011;1311;47.966;7.958;2023-04-25T00:39:28;2.00;;;1.60;;
2602;SDS011;1311;47.966;7.958;2023-04-25T00:41:56;3.30;;;2.23;;
2602;SDS011;1311;47.966;7.958;2023-04-25T00:44:23;1.70;;;1.60;;
2602;SDS011;1311;47.966;7.958;2023-04-25T00:46:51;2.37;;;2.10;;
2602;SDS011;1311;47.966;7.958;2023-04-25T00:49:19;3.40;;;1.97;;
2602;SDS011;1311;47.966;7.958;2023-04-25T00:51:46;3.50;;;1.97;;
2602;SDS011;1311;47.966;7.958;2023-04-25T00:54:13;5.43;;;2.27;;
2602;SDS011;1311;47.966;7.958;2023-04-25T00:56:40;2.23;;;1.90;;
2602;SDS011;1311;47.966;7.958;2023-04-25T00:59:08;2.03;;;1.80;;
2602;SDS011;1311;47.966;7.958;2023-04-25T01:01:35;2.47;;;2.27;;
2602;SDS011;1311;47.966;7.958;2023-04-25T01:04:03;3.03;;;2.40;;
2602;SDS011;1311;47.966;7.958;2023-04-25T01:06:30;5.37;;;2.60;;
2602;SDS011;1311;47.966;7.958;2023-04-25T01:08:58;5.70;;;2.40;;
2602;SDS011;1311;47.966;7.958;2023-04-25T01:11:25;3.97;;;2.47;;
2602;SDS011;1311;47.966;7.958;2023-04-25T01:13:52;2.60;;;2.40;;
2602;SDS011;1311;47.966;7.958;2023-04-25T01:16:20;7.23;;;2.67;;
2602;SDS011;1311;47.966;7.958;2023-04-25T01:18:48;4.10;;;2.70;;
2602;SDS011;1311;47.966;7.958;2023-04-25T01:21:17;2.83;;;2.27;;
2602;SDS011;1311;47.966;7.958;2023-04-25T01:23:44;4.07;;;2.57;;
2602;SDS011;1311;47.966;7.958;2023-04-25T01:26:11;3.77;;;2.57;;
2602;SDS011;1311;47.966;7.958;2023-04-25T01:28:39;8.30;;;2.83;;
2602;SDS011;1311;47.966;7.958;2023-04-25T01:31:06;2.60;;;2.20;;
2602;SDS011;1311;47.966;7.958;2023-04-25T01:33:33;2.93;;;2.30;;
2602;SDS011;1311;47.966;7.958;2023-04-25T01:36:00;4.60;;;2.50;;
2602;SDS011;1311;47.966;7.958;2023-04-25T01:38:29;3.00;;;2.50;;
2602;SDS011;1311;47.966;7.958;2023-04-25T01:40:56;4.20;;;2.57;;
2602;SDS011;1311;47.966;7.958;2023-04-25T01:43:23;2.70;;;2.50;;
2602;SDS011;1311;47.966;7.958;2023-04-25T01:45:51;5.90;;;2.60;;
2602;SDS011;1311;47.966;7.958;2023-04-25T01:48:18;5.50;;;2.80;;
2602;SDS011;1311;47.966;7.958;2023-04-25T01:50:45;3.10;;;2.53;;
2602;SDS011;1311;47.966;7.958;2023-04-25T01:53:12;5.73;;;2.20;;
2602;SDS011;1311;47.966;7.958;2023-04-25T01:55:41;3.30;;;2.33;;
2602;SDS011;1311;47.966;7.958;2023-04-25T01:58:08;2.33;;;2.13;;
2602;SDS011;1311;47.966;7.958;2023-04-25T02:00:37;3.20;;;2.60;;
2602;SDS011;1311;47.966;7.958;2023-04-25T02:03:05;3.93;;;2.60;;
2602;SDS011;1311;47.966;7.958;2023-04-25T02:05:36;2.57;;;2.37;;
2602;SDS011;1311;47.966;7.958;2023-04-25T02:08:04;2.13;;;1.93;;
2602;SDS011;1311;47.966;7.958;2023-04-25T02:10:32;4.83;;;2.23;;
2602;SDS011;1311;47.966;7.958;2023-04-25T02:13:01;2.90;;;2.40;;
2602;SDS011;1311;47.966;7.958;2023-04-25T02:15:29;3.83;;;2.60;;
2602;SDS011;1311;47.966;7.958;2023-04-25T02:17:56;3.53;;;2.57;;
2602;SDS011;1311;47.966;7.958;2023-04-25T02:20:23;2.70;;;2.20;;
2602;SDS011;1311;47.966;7.958;2023-04-25T02:22:50;2.70;;;2.50;;
2602;SDS011;1311;47.966;7.958;2023-04-25T02:25:17;3.23;;;2.03;;
2602;SDS011;1311;47.966;7.958;2023-04-25T02:27:45;3.83;;;2.80;;
2602;SDS011;1311;47.966;7.958;2023-04-25T02:30:13;2.67;;;2.33;;
2602;SDS011;1311;47.966;7.958;2023-04-25T02:32:40;2.13;;;2.03;;
2602;SDS011;1311;47.966;7.958;2023-04-25T02:35:07;3.13;;;2.77;;
2602;SDS011;1311;47.966;7.958;2023-04-25T02:37:35;4.27;;;1.93;;
2602;SDS011;1311;47.966;7.958;2023-04-25T02:40:05;3.13;;;2.37;;
2602;SDS011;1311;47.966;7.958;2023-04-25T02:42:33;3.77;;;2.63;;
2602;SDS011;1311;47.966;7.958;2023-04-25T02:44:59;3.00;;;2.47;;
2602;SDS011;1311;47.966;7.958;2023-04-25T02:47:28;2.60;;;1.93;;
2602;SDS011;1311;47.966;7.958;2023-04-25T02:49:54;3.27;;;2.27;;
2602;SDS011;1311;47.966;7.958;2023-04-25T02:52:21;4.13;;;2.40;;
2602;SDS011;1311;47.966;7.958;2023-04-25T02:54:48;2.67;;;2.20;;
2602;SDS011;1311;47.966;7.958;2023-04-25T02:57:14;4.20;;;2.53;;
2602;SDS011;1311;47.966;7.958;2023-04-25T02:59:41;2.77;;;2.40;;
2602;SDS011;1311;47.966;7.958;2023-04-25T03:02:09;3.17;;;2.80;;
2602;SDS011;1311;47.966;7.958;2023-04-25T03:04:37;3.97;;;2.73;;
2602;SDS011;1311;47.966;7.958;2023-04-25T03:07:04;4.33;;;2.87;;
2602;SDS011;1311;47.966;7.958;2023-04-25T03:09:31;2.73;;;2.50;;
2602;SDS011;1311;47.966;7.958;2023-04-25T03:11:58;4.07;;;3.33;;
2602;SDS011;1311;47.966;7.958;2023-04-25T03:14:25;3.47;;;2.80;;
2602;SDS011;1311;47.966;7.958;2023-04-25T03:16:52;5.10;;;3.37;;
2602;SDS011;1311;47.966;7.958;2023-04-25T03:19:18;4.17;;;3.30;;
2602;SDS011;1311;47.966;7.958;2023-04-25T03:21:46;3.33;;;3.03;;
2602;SDS011;1311;47.966;7.958;2023-04-25T03:24:13;6.10;;;3.00;;
2602;SDS011;1311;47.966;7.958;2023-04-25T03:26:40;3.43;;;3.13;;
2602;SDS011;1311;47.966;7.958;2023-04-25T03:29:07;5.70;;;3.50;;
2602;SDS011;1311;47.966;7.958;2023-04-25T03:31:33;4.57;;;3.13;;
2602;SDS011;1311;47.966;7.958;2023-04-25T03:34:00;4.10;;;3.67;;
2602;SDS011;1311;47.966;7.958;2023-04-25T03:36:27;4.60;;;3.50;;
2602;SDS011;1311;47.966;7.958;2023-04-25T03:38:55;3.73;;;3.30;;
2602;SDS011;1311;47.966;7.958;2023-04-25T03:41:22;3.53;;;3.00;;
2602;SDS011;1311;47.966;7.958;2023-04-25T03:43:48;3.87;;;3.40;;
2602;SDS011;1311;47.966;7.958;2023-04-25T03:46:15;4.10;;;3.10;;
2602;SDS011;1311;47.966;7.958;2023-04-25T03:48:42;3.47;;;2.70;;
2602;SDS011;1311;47.966;7.958;2023-04-25T03:51:08;6.60;;;3.20;;
2602;SDS011;1311;47.966;7.958;2023-04-25T03:53:35;3.40;;;3.10;;
2602;SDS011;1311;47.966;7.958;2023-04-25T03:56:03;3.77;;;3.17;;
2602;SDS011;1311;47.966;7.958;2023-04-25T03:58:30;6.83;;;3.07;;
2602;SDS011;1311;47.966;7.958;2023-04-25T04:00:57;6.17;;;2.90;;
2602;SDS011;1311;47.966;7.958;2023-04-25T04:03:24;3.60;;;3.30;;
2602;SDS011;1311;47.966;7.958;2023-04-25T04:05:51;6.03;;;3.00;;
2602;SDS011;1311;47.966;7.958;2023-04-25T04:08:18;5.70;;;3.00;;
2602;SDS011;1311;47.966;7.958;2023-04-25T04:10:44;4.40;;;3.10;;
2602;SDS011;1311;47.966;7.958;2023-04-25T04:13:12;7.43;;;3.10;;
2602;SDS011;1311;47.966;7.958;2023-04-25T04:15:39;3.87;;;2.90;;
2602;SDS011;1311;47.966;7.958;2023-04-25T04:18:06;2.90;;;2.50;;
2602;SDS011;1311;47.966;7.958;2023-04-25T04:20:33;4.20;;;2.80;;
2602;SDS011;1311;47.966;7.958;2023-04-25T04:22:59;5.73;;;2.60;;
2602;SDS011;1311;47.966;7.958;2023-04-25T04:25:26;4.03;;;2.73;;
2602;SDS011;1311;47.966;7.958;2023-04-25T04:27:53;4.23;;;3.83;;
2602;SDS011;1311;47.966;7.958;2023-04-25T04:30:22;7.73;;;4.27;;
2602;SDS011;1311;47.966;7.958;2023-04-25T04:32:50;6.53;;;3.53;;
2602;SDS011;1311;47.966;7.958;2023-04-25T04:35:17;4.17;;;3.40;;
2602;SDS011;1311;47.966;7.958;2023-04-25T04:37:44;4.63;;;3.20;;
2602;SDS011;1311;47.966;7.958;2023-04-25T04:40:11;5.50;;;3.60;;
2602;SDS011;1311;47.966;7.958;2023-04-25T04:42:40;4.27;;;3.00;;
2602;SDS011;1311;47.966;7.958;2023-04-25T04:45:07;6.07;;;2.67;;
2602;SDS011;1311;47.966;7.958;2023-04-25T04:47:36;3.67;;;2.87;;
2602;SDS011;1311;47.966;7.958;2023-04-25T04:50:04;5.00;;;2.90;;
2602;SDS011;1311;47.966;7.958;2023-04-25T04:52:32;3.63;;;2.70;;
2602;SDS011;1311;47.966;7.958;2023-04-25T04:54:58;6.93;;;3.60;;
2602;SDS011;1311;47.966;7.958;2023-04-25T04:57:25;6.17;;;3.27;;
2602;SDS011;1311;47.966;7.958;2023-04-25T04:59:53;6.10;;;3.90;;
2602;SDS011;1311;47.966;7.958;2023-04-25T05:02:20;4.80;;;3.80;;
2602;SDS011;1311;47.966;7.958;2023-04-25T05:04:48;4.97;;;3.50;;
2602;SDS011;1311;47.966;7.958;2023-04-25T05:07:16;4.00;;;3.67;;
2602;SDS011;1311;47.966;7.958;2023-04-25T05:09:43;3.87;;;3.10;;
2602;SDS011;1311;47.966;7.958;2023-04-25T05:12:10;4.40;;;3.77;;
2602;SDS011;1311;47.966;7.958;2023-04-25T05:14:37;3.50;;;3.00;;
2602;SDS011;1311;47.966;7.958;2023-04-25T05:17:03;5.93;;;3.20;;
2602;SDS011;1311;47.966;7.958;2023-04-25T05:19:33;4.80;;;3.00;;
2602;SDS011;1311;47.966;7.958;2023-04-25T05:22:01;3.77;;;3.27;;
2602;SDS011;1311;47.966;7.958;2023-04-25T05:24:28;4.93;;;3.07;;
2602;SDS011;1311;47.966;7.958;2023-04-25T05:26:55;5.10;;;3.27;;
2602;SDS011;1311;47.966;7.958;2023-04-25T05:29:22;4.87;;;3.47;;
2602;SDS011;1311;47.966;7.958;2023-04-25T05:31:49;4.83;;;3.73;;
2602;SDS011;1311;47.966;7.958;2023-04-25T05:34:16;5.10;;;3.50;;
2602;SDS011;1311;47.966;7.958;2023-04-25T05:36:42;4.43;;;3.33;;
2602;SDS011;1311;47.966;7.958;2023-04-25T05:39:10;6.40;;;4.37;;
2602;SDS011;1311;47.966;7.958;2023-04-25T05:41:37;6.43;;;4.30;;
2602;SDS011;1311;47.966;7.958;2023-04-25T05:44:04;3.77;;;3.47;;
2602;SDS011;1311;47.966;7.958;2023-04-25T05:46:31;6.40;;;3.77;;
2602;SDS011;1311;47.966;7.958;2023-04-25T05:48:58;7.17;;;5.13;;
2602;SDS011;1311;47.966;7.958;2023-04-25T05:51:25;9.20;;;5.57;;
2602;SDS011;1311;47.966;7.958;2023-04-25T05:53:52;7.57;;;5.30;;
2602;SDS011;1311;47.966;7.958;2023-04-25T05:56:20;5.87;;;4.17;;
2602;SDS011;1311;47.966;7.958;2023-04-25T05:58:47;2.20;;;1.60;;
2602;SDS011;1311;47.966;7.958;2023-04-25T06:01:14;2.20;;;0.93;;
2602;SDS011;1311;47.966;7.958;2023-04-25T06:03:40;0.80;;;0.60;;
2602;SDS011;1311;47.966;7.958;2023-04-25T06:06:08;1.50;;;0.90;;
2602;SDS011;1311;47.966;7.958;2023-04-25T06:08:35;1.33;;;1.10;;
2602;SDS011;1311;47.966;7.958;2023-04-25T06:11:02;1.73;;;1.10;;
2602;SDS011;1311;47.966;7.958;2023-04-25T06:13:31;1.30;;;1.20;;
2602;SDS011;1311;47.966;7.958;2023-04-25T06:15:57;1.00;;;1.00;;
2602;SDS011;1311;47.966;7.958;2023-04-25T06:18:24;1.07;;;1.07;;
2602;SDS011;1311;47.966;7.958;2023-04-25T06:20:51;0.60;;;0.60;;
2602;SDS011;1311;47.966;7.958;2023-04-25T06:23:18;1.10;;;1.00;;
2602;SDS011;1311;47.966;7.958;2023-04-25T06:25:44;3.23;;;1.20;;
2602;SDS011;1311;47.966;7.958;2023-04-25T06:28:11;0.50;;;0.50;;
2602;SDS011;1311;47.966;7.958;2023-04-25T06:30:39;0.53;;;0.53;;
2602;SDS011;1311;47.966;7.958;2023-04-25T06:33:06;0.50;;;0.50;;
2602;SDS011;1311;47.966;7.958;2023-04-25T06:35:34;1.60;;;0.70;;
2602;SDS011;1311;47.966;7.958;2023-04-25T06:38:01;0.40;;;0.40;;
2602;SDS011;1311;47.966;7.958;2023-04-25T06:40:27;0.80;;;0.80;;
2602;SDS011;1311;47.966;7.958;2023-04-25T06:42:54;0.60;;;0.60;;
2602;SDS011;1311;47.966;7.958;2023-04-25T06:45:21;0.80;;;0.80;;
2602;SDS011;1311;47.966;7.958;2023-04-25T06:47:49;0.67;;;0.60;;
2602;SDS011;1311;47.966;7.958;2023-04-25T06:50:16;0.50;;;0.50;;
2602;SDS011;1311;47.966;7.958;2023-04-25T06:52:42;1.10;;;0.70;;
2602;SDS011;1311;47.966;7.958;2023-04-25T06:55:09;0.50;;;0.50;;
2602;SDS011;1311;47.966;7.958;2023-04-25T06:57:36;0.73;;;0.60;;
2602;SDS011;1311;47.966;7.958;2023-04-25T07:00:03;1.40;;;0.60;;
2602;SDS011;1311;47.966;7.958;2023-04-25T07:02:34;1.90;;;0.90;;
2602;SDS011;1311;47.966;7.958;2023-04-25T07:05:02;0.80;;;0.60;;
2602;SDS011;1311;47.966;7.958;2023-04-25T07:07:29;1.07;;;0.67;;
2602;SDS011;1311;47.966;7.958;2023-04-25T07:09:56;0.50;;;0.47;;
2602;SDS011;1311;47.966;7.958;2023-04-25T07:12:22;1.00;;;0.70;;
2602;SDS011;1311;47.966;7.958;2023-04-25T07:14:49;0.70;;;0.70;;
2602;SDS011;1311;47.966;7.958;2023-04-25T07:17:16;0.50;;;0.50;;
2602;SDS011;1311;47.966;7.958;2023-04-25T07:19:43;0.80;;;0.70;;
2602;SDS011;1311;47.966;7.958;2023-04-25T07:22:11;0.57;;;0.57;;
2602;SDS011;1311;47.966;7.958;2023-04-25T07:24:38;0.67;;;0.67;;
2602;SDS011;1311;47.966;7.958;2023-04-25T07:27:05;0.67;;;0.67;;
2602;SDS011;1311;47.966;7.958;2023-04-25T07:29:32;0.93;;;0.67;;
2602;SDS011;1311;47.966;7.958;2023-04-25T07:32:02;0.67;;;0.60;;
2602;SDS011;1311;47.966;7.958;2023-04-25T07:34:28;1.10;;;1.00;;
2602;SDS011;1311;47.966;7.958;2023-04-25T07:36:57;1.17;;;0.90;;
2602;SDS011;1311;47.966;7.958;2023-04-25T07:39:25;0.80;;;0.70;;
2602;SDS011;1311;47.966;7.958;2023-04-25T07:41:52;1.00;;;0.87;;
2602;SDS011;1311;47.966;7.958;2023-04-25T07:44:19;1.00;;;0.90;;
2602;SDS011;1311;47.966;7.958;2023-04-25T07:46:46;1.90;;;1.70;;
2602;SDS011;1311;47.966;7.958;2023-04-25T07:49:13;0.90;;;0.90;;
2602;SDS011;1311;47.966;7.958;2023-04-25T07:51:40;0.80;;;0.80;;
2602;SDS011;1311;47.966;7.958;2023-04-25T07:54:08;1.37;;;1.27;;
2602;SDS011;1311;47.966;7.958;2023-04-25T07:56:36;2.63;;;1.17;;
2602;SDS011;1311;47.966;7.958;2023-04-25T07:59:03;2.50;;;1.50;;
2602;SDS011;1311;47.966;7.958;2023-04-25T08:01:30;1.57;;;1.23;;
2602;SDS011;1311;47.966;7.958;2023-04-25T08:03:57;3.07;;;1.37;;
2602;SDS011;1311;47.966;7.958;2023-04-25T08:06:23;1.70;;;1.60;;
2602;SDS011;1311;47.966;7.958;2023-04-25T08:08:50;2.03;;;1.30;;
2602;SDS011;1311;47.966;7.958;2023-04-25T08:11:17;1.33;;;1.07;;
2602;SDS011;1311;47.966;7.958;2023-04-25T08:13:45;1.37;;;0.87;;
2602;SDS011;1311;47.966;7.958;2023-04-25T08:16:12;0.63;;;0.60;;
2602;SDS011;1311;47.966;7.958;2023-04-25T08:18:38;1.00;;;0.90;;
2602;SDS011;1311;47.966;7.958;2023-04-25T08:21:05;0.67;;;0.63;;
2602;SDS011;1311;47.966;7.958;2023-04-25T08:23:33;1.50;;;0.67;;
2602;SDS011;1311;47.966;7.958;2023-04-25T08:26:02;3.67;;;1.90;;
2602;SDS011;1311;47.966;7.958;2023-04-25T08:28:29;1.33;;;1.00;;
2602;SDS011;1311;47.966;7.958;2023-04-25T08:30:58;1.03;;;0.90;;
2602;SDS011;1311;47.966;7.958;2023-04-25T08:33:24;1.23;;;0.93;;
2602;SDS011;1311;47.966;7.958;2023-04-25T08:35:51;2.40;;;1.20;;
2602;SDS011;1311;47.966;7.958;2023-04-25T08:38:18;2.00;;;1.10;;
2602;SDS011;1311;47.966;7.958;2023-04-25T08:40:46;1.33;;;1.20;;
2602;SDS011;1311;47.966;7.958;2023-04-25T08:43:17;1.90;;;1.60;;
2602;SDS011;1311;47.966;7.958;2023-04-25T08:45:45;1.83;;;1.27;;
2602;SDS011;1311;47.966;7.958;2023-04-25T08:48:15;1.80;;;1.60;;
2602;SDS011;1311;47.966;7.958;2023-04-25T08:50:44;2.03;;;1.83;;
2602;SDS011;1311;47.966;7.958;2023-04-25T08:53:15;3.20;;;1.70;;
2602;SDS011;1311;47.966;7.958;2023-04-25T08:55:45;1.87;;;1.53;;
2602;SDS011;1311;47.966;7.958;2023-04-25T08:58:12;1.80;;;1.60;;
2602;SDS011;1311;47.966;7.958;2023-04-25T09:00:40;1.90;;;1.53;;
2602;SDS011;1311;47.966;7.958;2023-04-25T09:03:07;1.73;;;1.50;;
2602;SDS011;1311;47.966;7.958;2023-04-25T09:05:35;1.73;;;1.60;;
2602;SDS011;1311;47.966;7.958;2023-04-25T09:08:02;3.07;;;1.60;;
2602;SDS011;1311;47.966;7.958;2023-04-25T09:10:29;2.47;;;1.50;;
2602;SDS011;1311;47.966;7.958;2023-04-25T09:13:02;2.07;;;1.87;;
2602;SDS011;1311;47.966;7.958;2023-04-25T09:15:31;2.53;;;1.80;;
2602;SDS011;1311;47.966;7.958;2023-04-25T09:17:59;1.70;;;1.30;;
2602;SDS011;1311;47.966;7.958;2023-04-25T09:20:28;1.50;;;1.40;;
2602;SDS011;1311;47.966;7.958;2023-04-25T09:23:05;3.17;;;1.30;;
2602;SDS011;1311;47.966;7.958;2023-04-25T09:25:35;1.33;;;1.00;;
2602;SDS011;1311;47.966;7.958;2023-04-25T09:28:04;1.33;;;1.23;;
2602;SDS011;1311;47.966;7.958;2023-04-25T09:30:32;1.30;;;1.20;;
2602;SDS011;1311;47.966;7.958;2023-04-25T09:33:03;2.60;;;1.90;;
2602;SDS011;1311;47.966;7.958;2023-04-25T09:35:35;1.77;;;1.53;;
2602;SDS011;1311;47.966;7.958;2023-04-25T09:38:08;1.53;;;1.10;;
2602;SDS011;1311;47.966;7.958;2023-04-25T09:40:38;1.40;;;1.30;;
2602;SDS011;1311;47.966;7.958;2023-04-25T09:43:08;1.27;;;1.17;;
2602;SDS011;1311;47.966;7.958;2023-04-25T09:45:40;1.30;;;1.20;;
2602;SDS011;1311;47.966;7.958;2023-04-25T09:48:10;1.97;;;1.43;;
2602;SDS011;1311;47.966;7.958;2023-04-25T09:50:38;1.90;;;1.60;;
2602;SDS011;1311;47.966;7.958;2023-04-25T09:53:05;2.40;;;1.70;;
2602;SDS011;1311;47.966;7.958;2023-04-25T09:55:34;1.80;;;1.70;;
2602;SDS011;1311;47.966;7.958;2023-04-25T09:58:03;2.70;;;2.10;;
2602;SDS011;1311;47.966;7.958;2023-04-25T10:00:32;2.07;;;1.87;;
2602;SDS011;1311;47.966;7.958;2023-04-25T10:02:59;2.70;;;1.73;;
2602;SDS011;1311;47.966;7.958;2023-04-25T10:05:29;2.30;;;1.60;;
2602;SDS011;1311;47.966;7.958;2023-04-25T10:07:58;2.30;;;2.10;;
2602;SDS011;1311;47.966;7.958;2023-04-25T10:10:28;3.73;;;2.50;;
2602;SDS011;1311;47.966;7.958;2023-04-25T10:13:00;2.80;;;1.90;;
2602;SDS011;1311;47.966;7.958;2023-04-25T10:15:30;2.77;;;1.90;;
2602;SDS011;1311;47.966;7.958;2023-04-25T10:17:57;1.73;;;1.63;;
2602;SDS011;1311;47.966;7.958;2023-04-25T10:20:25;5.10;;;1.80;;
2602;SDS011;1311;47.966;7.958;2023-04-25T10:22:52;2.40;;;1.97;;
2602;SDS011;1311;47.966;7.958;2023-04-25T10:25:22;2.93;;;2.73;;
2602;SDS011;1311;47.966;7.958;2023-04-25T10:27:51;2.83;;;2.37;;
2602;SDS011;1311;47.966;7.958;2023-04-25T10:30:18;3.70;;;2.20;;
2602;SDS011;1311;47.966;7.958;2023-04-25T10:32:45;2.27;;;2.07;;
2602;SDS011;1311;47.966;7.958;2023-04-25T10:35:15;2.50;;;2.30;;
2602;SDS011;1311;47.966;7.958;2023-04-25T10:37:56;2.20;;;2.00;;
2602;SDS011;1311;47.966;7.958;2023-04-25T10:40:24;3.80;;;2.47;;
2602;SDS011;1311;47.966;7.958;2023-04-25T10:42:52;2.60;;;1.93;;
2602;SDS011;1311;47.966;7.958;2023-04-25T10:45:21;3.63;;;2.40;;
2602;SDS011;1311;47.966;7.958;2023-04-25T10:47:48;3.73;;;2.10;;
2602;SDS011;1311;47.966;7.958;2023-04-25T10:50:15;2.50;;;1.97;;
2602;SDS011;1311;47.966;7.958;2023-04-25T10:52:42;1.90;;;1.80;;
2602;SDS011;1311;47.966;7.958;2023-04-25T10:55:09;2.20;;;1.93;;
2602;SDS011;1311;47.966;7.958;2023-04-25T10:57:36;1.83;;;1.70;;
2602;SDS011;1311;47.966;7.958;2023-04-25T11:00:07;4.33;;;2.27;;
2602;SDS011;1311;47.966;7.958;2023-04-25T11:02:37;2.27;;;2.07;;
2602;SDS011;1311;47.966;7.958;2023-04-25T11:05:07;1.93;;;1.83;;
2602;SDS011;1311;47.966;7.958;2023-04-25T11:07:37;2.60;;;2.40;;
2602;SDS011;1311;47.966;7.958;2023-04-25T11:10:09;2.23;;;1.83;;
2602;SDS011;1311;47.966;7.958;2023-04-25T11:12:36;2.47;;;1.90;;
2602;SDS011;1311;47.966;7.958;2023-04-25T11:15:03;2.93;;;2.10;;
2602;SDS011;1311;47.966;7.958;2023-04-25T11:17:33;2.43;;;2.20;;
2602;SDS011;1311;47.966;7.958;2023-04-25T11:20:00;2.10;;;1.80;;
2602;SDS011;1311;47.966;7.958;2023-04-25T11:22:31;8.10;;;2.97;;
2602;SDS011;1311;47.966;7.958;2023-04-25T11:24:58;2.97;;;2.30;;
2602;SDS011;1311;47.966;7.958;2023-04-25T11:27:30;2.83;;;2.30;;
2602;SDS011;1311;47.966;7.958;2023-04-25T11:29:57;2.50;;;2.30;;
2602;SDS011;1311;47.966;7.958;2023-04-25T11:32:23;2.80;;;2.13;;
2602;SDS011;1311;47.966;7.958;2023-04-25T11:34:52;2.13;;;1.90;;
2602;SDS011;1311;47.966;7.958;2023-04-25T11:37:19;2.63;;;2.40;;
2602;SDS011;1311;47.966;7.958;2023-04-25T11:39:46;2.50;;;2.30;;
2602;SDS011;1311;47.966;7.958;2023-04-25T11:42:13;2.60;;;1.80;;
2602;SDS011;1311;47.966;7.958;2023-04-25T11:44:40;2.37;;;2.17;;
2602;SDS011;1311;47.966;7.958;2023-04-25T11:47:07;3.10;;;2.27;;
2602;SDS011;1311;47.966;7.958;2023-04-25T11:49:34;3.50;;;2.70;;
2602;SDS011;1311;47.966;7.958;2023-04-25T11:52:03;2.80;;;2.23;;
2602;SDS011;1311;47.966;7.958;2023-04-25T11:54:34;2.77;;;1.70;;
2602;SDS011;1311;47.966;7.958;2023-04-25T11:57:01;1.87;;;1.70;;
2602;SDS011;1311;47.966;7.958;2023-04-25T11:59:29;1.80;;;1.70;;
2602;SDS011;1311;47.966;7.958;2023-04-25T12:01:55;2.00;;;1.33;;
2602;SDS011;1311;47.966;7.958;2023-04-25T12:04:23;3.70;;;1.80;;
2602;SDS011;1311;47.966;7.958;2023-04-25T12:06:51;3.73;;;1.80;;
2602;SDS011;1311;47.966;7.958;2023-04-25T12:09:21;3.60;;;1.90;;
2602;SDS011;1311;47.966;7.958;2023-04-25T12:11:57;2.70;;;1.83;;
2602;SDS011;1311;47.966;7.958;2023-04-25T12:14:28;5.17;;;2.60;;
2602;SDS011;1311;47.966;7.958;2023-04-25T12:16:56;1.47;;;1.37;;
2602;SDS011;1311;47.966;7.958;2023-04-25T12:19:24;1.80;;;1.43;;
2602;SDS011;1311;47.966;7.958;2023-04-25T12:21:52;1.57;;;1.33;;
2602;SDS011;1311;47.966;7.958;2023-04-25T12:24:22;2.13;;;1.50;;
2602;SDS011;1311;47.966;7.958;2023-04-25T12:26:51;2.70;;;1.50;;
2602;SDS011;1311;47.966;7.958;2023-04-25T12:29:19;1.43;;;1.33;;
2602;SDS011;1311;47.966;7.958;2023-04-25T12:31:48;1.13;;;0.87;;
2602;SDS011;1311;47.966;7.958;2023-04-25T12:34:16;2.53;;;1.80;;
2602;SDS011;1311;47.966;7.958;2023-04-25T12:36:42;1.80;;;1.70;;
2602;SDS011;1311;47.966;7.958;2023-04-25T12:39:14;1.40;;;1.30;;
2602;SDS011;1311;47.966;7.958;2023-04-25T12:41:42;2.20;;;1.60;;
2602;SDS011;1311;47.966;7.958;2023-04-25T12:44:09;1.60;;;1.50;;
2602;SDS011;1311;47.966;7.958;2023-04-25T12:46:36;1.90;;;1.57;;
2602;SDS011;1311;47.966;7.958;2023-04-25T12:49:03;1.70;;;1.60;;
2602;SDS011;1311;47.966;7.958;2023-04-25T12:51:31;1.80;;;1.70;;
2602;SDS011;1311;47.966;7.958;2023-04-25T12:53:58;1.70;;;1.30;;
2602;SDS011;1311;47.966;7.958;2023-04-25T12:56:25;1.70;;;1.30;;
2602;SDS011;1311;47.966;7.958;2023-04-25T12:58:53;1.83;;;1.63;;
2602;SDS011;1311;47.966;7.958;2023-04-25T13:01:20;1.70;;;1.60;;
2602;SDS011;1311;47.966;7.958;2023-04-25T13:03:47;1.70;;;1.57;;
2602;SDS011;1311;47.966;7.958;2023-04-25T13:06:14;1.67;;;1.57;;
2602;SDS011;1311;47.966;7.958;2023-04-25T13:08:41;2.23;;;1.80;;
2602;SDS011;1311;47.966;7.958;2023-04-25T13:11:08;2.10;;;1.37;;
2602;SDS011;1311;47.966;7.958;2023-04-25T13:13:36;1.37;;;1.27;;
2602;SDS011;1311;47.966;7.958;2023-04-25T13:16:06;1.63;;;1.53;;
2602;SDS011;1311;47.966;7.958;2023-04-25T13:18:33;2.40;;;1.40;;
2602;SDS011;1311;47.966;7.958;2023-04-25T13:21:00;1.53;;;1.43;;
2602;SDS011;1311;47.966;7.958;2023-04-25T13:23:28;2.30;;;1.80;;
2602;SDS011;1311;47.966;7.958;2023-04-25T13:25:55;1.53;;;1.43;;
2602;SDS011;1311;47.966;7.958;2023-04-25T13:28:23;1.97;;;1.40;;
2602;SDS011;1311;47.966;7.958;2023-04-25T13:30:50;1.40;;;1.30;;
2602;SDS011;1311;47.966;7.958;2023-04-25T13:33:18;1.30;;;1.20;;
2602;SDS011;1311;47.966;7.958;2023-04-25T13:35:45;1.77;;;1.30;;
2602;SDS011;1311;47.966;7.958;2023-04-25T13:38:18;1.83;;;1.23;;
2602;SDS011;1311;47.966;7.958;2023-04-25T13:40:45;1.30;;;1.20;;
2602;SDS011;1311;47.966;7.958;2023-04-25T13:43:12;2.50;;;1.43;;
2602;SDS011;1311;47.966;7.958;2023-04-25T13:45:39;1.50;;;1.30;;
2602;SDS011;1311;47.966;7.958;2023-04-25T13:48:06;1.87;;;1.70;;
2602;SDS011;1311;47.966;7.958;2023-04-25T13:50:34;2.03;;;1.83;;
2602;SDS011;1311;47.966;7.958;2023-04-25T13:53:01;1.50;;;1.40;;
2602;SDS011;1311;47.966;7.958;2023-04-25T13:55:28;1.97;;;1.87;;
2602;SDS011;1311;47.966;7.958;2023-04-25T13:57:55;2.17;;;1.33;;
2602;SDS011;1311;47.966;7.958;2023-04-25T14:00:21;1.47;;;1.37;;
2602;SDS011;1311;47.966;7.958;2023-04-25T14:02:48;1.47;;;1.37;;
2602;SDS011;1311;47.966;7.958;2023-04-25T14:05:15;2.03;;;1.10;;
2602;SDS011;1311;47.966;7.958;2023-04-25T14:07:43;0.97;;;0.90;;
2602;SDS011;1311;47.966;7.958;2023-04-25T14:10:10;2.03;;;1.30;;
2602;SDS011;1311;47.966;7.958;2023-04-25T14:12:37;1.40;;;1.30;;
2602;SDS011;1311;47.966;7.958;2023-04-25T14:15:05;1.90;;;1.53;;
2602;SDS011;1311;47.966;7.958;2023-04-25T14:17:32;1.40;;;1.30;;
2602;SDS011;1311;47.966;7.958;2023-04-25T14:19:59;2.60;;;1.40;;
2602;SDS011;1311;47.966;7.958;2023-04-25T14:22:26;2.07;;;1.30;;
2602;SDS011;1311;47.966;7.958;2023-04-25T14:24:54;1.43;;;1.10;;
2602;SDS011;1311;47.966;7.958;2023-04-25T14:27:20;1.73;;;1.40;;
2602;SDS011;1311;47.966;7.958;2023-04-25T14:29:47;1.73;;;1.57;;
2602;SDS011;1311;47.966;7.958;2023-04-25T14:32:14;3.00;;;1.50;;
2602;SDS011;1311;47.966;7.958;2023-04-25T14:34:41;2.20;;;1.70;;
2602;SDS011;1311;47.966;7.958;2023-04-25T14:37:08;1.90;;;1.70;;
2602;SDS011;1311;47.966;7.958;2023-04-25T14:39:34;1.20;;;1.10;;
2602;SDS011;1311;47.966;7.958;2023-04-25T14:42:03;1.60;;;1.23;;
2602;SDS011;1311;47.966;7.958;2023-04-25T14:44:30;1.67;;;1.47;;
2602;SDS011;1311;47.966;7.958;2023-04-25T14:46:56;2.50;;;1.40;;
2602;SDS011;1311;47.966;7.958;2023-04-25T14:49:23;1.07;;;0.97;;
2602;SDS011;1311;47.966;7.958;2023-04-25T14:51:50;0.90;;;0.90;;
2602;SDS011;1311;47.966;7.958;2023-04-25T14:54:17;1.00;;;0.90;;
2602;SDS011;1311;47.966;7.958;2023-04-25T14:56:44;1.00;;;1.00;;
2602;SDS011;1311;47.966;7.958;2023-04-25T14:59:12;0.90;;;0.90;;
2602;SDS011;1311;47.966;7.958;2023-04-25T15:01:39;1.13;;;1.03;;
2602;SDS011;1311;47.966;7.958;2023-04-25T15:04:06;1.30;;;0.90;;
2602;SDS011;1311;47.966;7.958;2023-04-25T15:06:33;1.10;;;1.00;;
2602;SDS011;1311;47.966;7.958;2023-04-25T15:08:59;1.50;;;1.10;;
2602;SDS011;1311;47.966;7.958;2023-04-25T15:11:26;1.00;;;0.90;;
2602;SDS011;1311;47.966;7.958;2023-04-25T15:13:53;1.90;;;0.90;;
2602;SDS011;1311;47.966;7.958;2023-04-25T15:16:21;1.63;;;1.20;;